createdAt,value
2023-01-12T00:25:27.442Z,7.64
2023-01-12T00:54:03.458Z,7.68
2023-01-12T01:22:43.130Z,7.84
2023-01-12T01:51:17.571Z,7.89
2023-01-12T02:19:56.669Z,7.68
2023-01-12T02:48:22.775Z,7.76
2023-01-12T03:16:54.568Z,7.77
2023-01-12T03:45:37.172Z,7.75
2023-01-12T04:14:04.358Z,7.87
2023-01-12T04:42:41.169Z,7.97
2023-01-12T05:11:08.318Z,8.03
2023-01-12T05:39:40.318Z,8.05
2023-01-12T06:08:19.614Z,8.13
2023-01-12T06:36:58.546Z,8.25
2023-01-12T07:05:38.431Z,8.44
2023-01-12T07:34:25.205Z,8.57
2023-01-12T08:02:53.246Z,8.71
2023-01-12T08:31:14.785Z,8.73
2023-01-12T08:59:56.268Z,8.98
2023-01-12T09:28:33.879Z,9.13
2023-01-12T09:57:28.973Z,9.1
2023-01-12T10:25:36.126Z,9.51
2023-01-12T10:54:17.841Z,9.94
2023-01-12T11:22:57.862Z,10.04
2023-01-12T11:51:40.859Z,10
2023-01-12T12:20:17.936Z,10.16
2023-01-12T12:48:39.959Z,10.18
2023-01-12T13:17:18.466Z,10.11
2023-01-12T13:45:58.180Z,10.23
2023-01-12T14:14:31.303Z,10.2
2023-01-12T14:42:58.168Z,10.22
2023-01-12T15:11:27.267Z,10.11
2023-01-12T15:40:12.618Z,10.09
2023-01-12T16:08:48.026Z,10.02
2023-01-12T16:37:16.763Z,9.92
2023-01-12T17:05:59.073Z,9.95
2023-01-12T17:34:26.304Z,10.05
2023-01-12T18:03:02.782Z,10.16
2023-01-12T18:31:43.047Z,10.22
2023-01-12T19:00:09.106Z,10.23
2023-01-12T19:28:46.662Z,10.23
2023-01-12T19:57:19.138Z,10.27
2023-01-12T20:25:51.532Z,10.42
2023-01-12T20:54:26.963Z,10.45
2023-01-12T21:23:10.687Z,10.43
2023-01-12T21:52:00.752Z,10.5
2023-01-12T22:20:49.408Z,10.46
2023-01-12T22:49:35.122Z,10.46
2023-01-12T23:18:20.713Z,10.54
2023-01-12T23:47:01.642Z,10.69
